Time;durP1;ratioP1;P1;durP2;ratioP2;P2;SDS_P1;SDS_P2;PMS_P1;PMS_P2;Temp;Humidity;BMP_temperature;BMP_pressure;BME280_temperature;BME280_humidity;BME280_pressure;Samples;Min_cycle;Max_cycle;Signal;HPM_P1;HPM_P2
2022/01/07 00:00:30;;;;;;;16.90;5.80;;;4.00;99.90;;;;;;6074124;23;20022;-95
2022/01/07 00:02:57;;;;;;;16.50;6.10;;;4.00;99.90;;;;;;6073347;23;20394;-95
2022/01/07 00:05:24;;;;;;;19.13;6.35;;;4.00;99.90;;;;;;6076280;23;20508;-88
2022/01/07 00:07:52;;;;;;;;;;;4.00;99.90;;;;;;6076820;23;20480;-90
2022/01/07 00:10:20;;;;;;;15.13;5.70;;;4.00;99.90;;;;;;6074136;23;19924;-91
2022/01/07 00:12:47;;;;;;;18.98;6.00;;;4.00;99.90;;;;;;6074784;23;20014;-90
2022/01/07 00:15:13;;;;;;;17.55;6.57;;;4.00;99.90;;;;;;6096386;23;20054;-91
2022/01/07 00:17:39;;;;;;;15.23;5.90;;;4.00;99.90;;;;;;6073193;23;20025;-89
2022/01/07 00:20:09;;;;;;;18.60;6.47;;;4.00;99.90;;;;;;6073501;23;20026;-88
2022/01/07 00:22:35;;;;;;;19.73;6.57;;;4.00;99.90;;;;;;6073749;23;20014;-89
2022/01/07 00:25:01;;;;;;;15.88;6.40;;;4.00;99.90;;;;;;6073024;23;20451;-89
2022/01/07 00:27:27;;;;;;;15.77;6.10;;;4.00;99.90;;;;;;6073650;23;20022;-91
2022/01/07 00:29:53;;;;;;;20.83;6.60;;;4.00;99.90;;;;;;6049273;23;20077;-88
2022/01/07 00:32:19;;;;;;;16.80;6.17;;;4.00;99.90;;;;;;6073065;23;20467;-95
2022/01/07 00:34:44;;;;;;;14.03;5.90;;;3.90;99.90;;;;;;6072808;23;20101;-88
2022/01/07 00:37:11;;;;;;;17.37;6.60;;;3.90;99.90;;;;;;6073069;23;20022;-87
2022/01/07 00:39:37;;;;;;;;;;;3.90;99.90;;;;;;6049848;23;20362;-89
2022/01/07 00:42:03;;;;;;;15.23;6.35;;;3.90;99.90;;;;;;6098749;23;19917;-90
2022/01/07 00:44:29;;;;;;;17.05;6.35;;;3.90;99.90;;;;;;6074601;23;20018;-87
2022/01/07 00:49:44;;;;;;;17.75;5.95;;;3.80;99.90;;;;;;6183919;23;20028;-86
2022/01/07 00:52:10;;;;;;;17.58;6.45;;;3.80;99.90;;;;;;6184588;23;20096;-87
2022/01/07 00:54:36;;;;;;;20.05;7.57;;;3.70;99.90;;;;;;6135782;23;20017;-86
2022/01/07 00:57:02;;;;;;;16.07;7.10;;;3.70;99.90;;;;;;6135642;23;20017;-87
2022/01/07 00:59:28;;;;;;;17.95;6.70;;;3.70;99.90;;;;;;6160234;23;20159;-89
2022/01/07 01:01:56;;;;;;;17.87;7.10;;;3.70;99.90;;;;;;6136167;23;20444;-89
2022/01/07 01:04:22;;;;;;;18.65;7.43;;;3.60;99.90;;;;;;6160214;23;20021;-88
2022/01/07 01:06:48;;;;;;;19.83;7.37;;;3.60;99.90;;;;;;6135885;23;20021;-87
2022/01/07 01:09:14;;;;;;;18.47;7.57;;;3.60;99.90;;;;;;6160610;23;20028;-87
2022/01/07 01:11:40;;;;;;;13.68;6.22;;;3.60;99.90;;;;;;6160024;23;20021;-87
2022/01/07 01:14:06;;;;;;;18.45;7.10;;;3.50;99.90;;;;;;6160004;23;20071;-87
2022/01/07 01:16:32;;;;;;;14.63;6.93;;;3.50;99.90;;;;;;6160341;23;20074;-87
2022/01/07 01:18:58;;;;;;;19.57;7.00;;;3.50;99.90;;;;;;6186993;23;20013;-87
2022/01/07 01:21:24;;;;;;;23.42;7.15;;;3.50;99.90;;;;;;6161561;23;20240;-89
2022/01/07 01:24:05;;;;;;;16.88;7.18;;;3.50;99.90;;;;;;6164321;23;20048;-86
2022/01/07 01:26:31;;;;;;;22.23;7.18;;;3.40;99.90;;;;;;6161616;23;20024;-88
2022/01/07 01:28:57;;;;;;;18.13;6.87;;;3.40;99.90;;;;;;6137424;23;20013;-89
2022/01/07 01:31:23;;;;;;;17.67;7.43;;;3.40;99.90;;;;;;6160777;23;20036;-88
2022/01/07 01:33:49;;;;;;;18.00;7.43;;;3.40;99.90;;;;;;6186901;23;20021;-89
2022/01/07 01:36:15;;;;;;;18.10;7.00;;;3.40;99.90;;;;;;6187003;23;20103;-89
2022/01/07 01:38:41;;;;;;;20.47;7.40;;;3.30;99.90;;;;;;6161128;23;20041;-87
2022/01/07 01:41:08;;;;;;;16.27;7.72;;;3.30;99.90;;;;;;6137093;23;20060;-87
2022/01/07 01:43:34;;;;;;;;;;;3.30;99.90;;;;;;6185948;23;20028;-86
2022/01/07 01:46:00;;;;;;;16.90;7.15;;;3.30;99.90;;;;;;6186818;23;19916;-88
2022/01/07 01:48:26;;;;;;;19.60;8.10;;;3.30;99.90;;;;;;6187538;23;20135;-87
2022/01/07 01:50:54;;;;;;;17.03;7.80;;;3.30;99.90;;;;;;6160648;23;20024;-87
2022/01/07 01:53:19;;;;;;;20.20;7.68;;;3.30;99.90;;;;;;6160613;23;20020;-88
2022/01/07 01:55:45;;;;;;;19.43;8.03;;;3.30;99.90;;;;;;6161058;23;20021;-87
2022/01/07 01:58:11;;;;;;;19.70;7.53;;;3.20;99.90;;;;;;6187570;23;20451;-87
2022/01/07 02:05:49;;;;;;;19.27;7.65;;;3.10;99.90;;;;;;6187620;23;20330;-87
2022/01/07 02:08:16;;;;;;;19.88;7.45;;;3.10;99.90;;;;;;6161127;23;20028;-88
2022/01/07 02:10:43;;;;;;;14.37;7.87;;;3.10;99.90;;;;;;6136364;23;20458;-88
2022/01/07 02:13:10;;;;;;;13.63;7.47;;;3.10;99.90;;;;;;6187692;23;20041;-88
2022/01/07 02:15:37;;;;;;;15.40;7.63;;;3.10;99.90;;;;;;6136614;23;20021;-87
2022/01/07 02:18:21;;;;;;;13.90;7.13;;;3.10;99.90;;;;;;6189118;23;20017;-88
2022/01/07 02:20:50;;;;;;;13.38;7.15;;;3.10;99.90;;;;;;6187796;23;20019;-88
2022/01/07 02:23:20;;;;;;;19.60;7.90;;;3.10;99.90;;;;;;6188614;23;20095;-90
2022/01/07 02:25:46;;;;;;;;;;;3.00;99.90;;;;;;6162140;23;20023;-88
2022/01/07 02:28:13;;;;;;;17.65;7.80;;;3.00;99.90;;;;;;6161451;23;19951;-88
2022/01/07 02:30:39;;;;;;;17.02;8.23;;;3.00;99.90;;;;;;6136001;23;20017;-88
2022/01/07 02:33:05;;;;;;;14.20;8.40;;;3.00;99.90;;;;;;6159898;23;20017;-88
2022/01/07 02:35:32;;;;;;;16.27;7.87;;;3.00;99.90;;;;;;6160982;23;20070;-88
2022/01/07 02:37:58;;;;;;;18.67;8.18;;;3.00;99.90;;;;;;6159813;23;20021;-88
2022/01/07 02:40:25;;;;;;;15.45;8.35;;;3.00;99.90;;;;;;6185592;23;20401;-88
2022/01/07 02:42:51;;;;;;;13.32;7.60;;;3.00;99.90;;;;;;6160855;23;20009;-88
2022/01/07 02:45:19;;;;;;;17.20;8.20;;;3.00;99.90;;;;;;6136233;23;20032;-88
2022/01/07 02:47:49;;;;;;;15.18;7.80;;;3.00;99.90;;;;;;6160479;23;20401;-88
2022/01/07 02:50:35;;;;;;;15.75;8.15;;;3.00;99.90;;;;;;6160202;23;20020;-89
2022/01/07 02:53:03;;;;;;;17.38;8.10;;;3.00;99.90;;;;;;6159684;23;20516;-88
2022/01/07 02:55:29;;;;;;;14.15;8.20;;;3.00;99.90;;;;;;6135595;23;20442;-88
2022/01/07 02:57:55;;;;;;;21.38;8.15;;;3.00;99.90;;;;;;6135742;23;20021;-88
2022/01/07 03:00:23;;;;;;;13.27;7.85;;;3.00;99.90;;;;;;6160918;23;20024;-88
2022/01/07 03:02:50;;;;;;;15.30;7.97;;;3.00;99.90;;;;;;6159945;23;20021;-88
2022/01/07 03:05:16;;;;;;;;;;;3.00;99.90;;;;;;6160745;23;20028;-88
2022/01/07 03:07:47;;;;;;;15.25;8.18;;;3.00;99.90;;;;;;6135922;23;19916;-87
2022/01/07 03:10:13;;;;;;;16.70;8.70;;;3.00;99.90;;;;;;6160860;23;20025;-88
2022/01/07 03:12:42;;;;;;;14.75;8.15;;;3.00;99.90;;;;;;6159857;23;20017;-87
2022/01/07 03:15:12;;;;;;;15.10;8.20;;;3.00;99.90;;;;;;6135400;23;20017;-87
2022/01/07 03:17:39;;;;;;;17.70;9.13;;;3.00;99.90;;;;;;6160234;23;20101;-88
2022/01/07 03:20:08;;;;;;;18.17;9.25;;;3.00;99.90;;;;;;6160743;23;20399;-88
2022/01/07 03:22:35;;;;;;;16.13;9.05;;;3.00;99.90;;;;;;6135236;23;20013;-87
2022/01/07 03:25:01;;;;;;;16.13;10.15;;;3.00;99.90;;;;;;6135235;23;20448;-88
2022/01/07 03:27:26;;;;;;;17.10;9.43;;;3.00;99.90;;;;;;6159645;23;20029;-88
2022/01/07 03:29:52;;;;;;;16.30;9.30;;;3.00;99.90;;;;;;6160162;23;20064;-88
2022/01/07 03:32:18;;;;;;;17.13;9.67;;;3.00;99.90;;;;;;6160365;23;20028;-88
2022/01/07 03:34:44;;;;;;;15.90;8.87;;;3.00;99.90;;;;;;6160180;23;20402;-87
2022/01/07 03:37:10;;;;;;;16.53;9.60;;;3.00;99.90;;;;;;6186775;23;20028;-87
2022/01/07 03:39:36;;;;;;;14.02;8.90;;;3.00;99.90;;;;;;6135642;23;20190;-88
2022/01/07 03:42:03;;;;;;;15.95;9.02;;;3.10;99.90;;;;;;6160004;23;20017;-87
2022/01/07 03:44:30;;;;;;;13.93;9.23;;;3.00;99.90;;;;;;6135894;23;20069;-87
2022/01/07 03:46:56;;;;;;;16.80;9.90;;;3.10;99.90;;;;;;6160723;23;20021;-88
2022/01/07 03:49:26;;;;;;;16.88;9.35;;;3.00;99.90;;;;;;6186677;23;20077;-90
2022/01/07 03:51:53;;;;;;;14.50;9.50;;;3.10;99.90;;;;;;6136367;23;20439;-88
2022/01/07 03:54:19;;;;;;;14.65;9.60;;;3.10;99.90;;;;;;6161143;23;20082;-88
2022/01/07 03:56:46;;;;;;;19.00;10.20;;;3.00;99.90;;;;;;6161179;23;20048;-87
2022/01/07 03:59:12;;;;;;;17.02;10.18;;;3.10;99.90;;;;;;6159943;23;20063;-88
2022/01/07 04:01:43;;;;;;;18.40;10.73;;;3.10;99.90;;;;;;6160627;23;20020;-88
2022/01/07 04:04:10;;;;;;;17.20;10.05;;;3.10;99.90;;;;;;6160690;23;20021;-88
2022/01/07 04:06:41;;;;;;;19.73;11.02;;;3.00;99.90;;;;;;6160894;23;20025;-89
2022/01/07 04:09:06;;;;;;;16.88;10.65;;;3.10;99.90;;;;;;6134500;23;20024;-86
2022/01/07 04:11:32;;;;;;;16.13;10.80;;;3.10;99.90;;;;;;6187408;23;20342;-87
2022/01/07 04:13:58;;;;;;;16.20;11.00;;;3.10;99.90;;;;;;6161190;23;20319;-89
2022/01/07 04:16:24;;;;;;;15.75;10.65;;;3.10;99.90;;;;;;6160882;23;20031;-88
2022/01/07 04:18:57;;;;;;;14.80;10.75;;;3.10;99.90;;;;;;6161915;23;20024;-87
2022/01/07 04:21:23;;;;;;;14.65;10.15;;;3.10;99.90;;;;;;6161542;23;20028;-88
2022/01/07 04:23:49;;;;;;;17.33;10.55;;;3.10;99.90;;;;;;6137246;23;20017;-89
2022/01/07 04:26:15;;;;;;;17.33;11.13;;;3.10;99.90;;;;;;6161811;23;20086;-88
2022/01/07 04:28:41;;;;;;;16.23;10.50;;;3.10;99.90;;;;;;6187661;23;20064;-87
2022/01/07 04:31:06;;;;;;;14.60;10.43;;;3.10;99.90;;;;;;6137499;23;20017;-87
2022/01/07 04:33:34;;;;;;;17.73;11.00;;;3.20;99.90;;;;;;6162734;23;20454;-88
2022/01/07 04:36:00;;;;;;;15.43;9.93;;;3.10;99.90;;;;;;6161799;23;20021;-88
2022/01/07 04:38:29;;;;;;;17.33;10.32;;;3.10;99.90;;;;;;6162186;23;20470;-87
2022/01/07 04:40:54;;;;;;;14.70;10.53;;;3.10;99.90;;;;;;6162354;23;20024;-87
2022/01/07 04:43:22;;;;;;;17.50;10.43;;;3.10;99.90;;;;;;6162610;23;20009;-88
2022/01/07 04:45:47;;;;;;;16.83;10.50;;;3.20;99.90;;;;;;6189007;23;20013;-88
2022/01/07 04:48:19;;;;;;;16.40;10.65;;;3.20;99.90;;;;;;6188570;23;20386;-88
2022/01/07 04:50:45;;;;;;;16.02;10.32;;;3.20;99.90;;;;;;6162262;23;20084;-88
2022/01/07 04:53:11;;;;;;;14.57;10.00;;;3.20;99.90;;;;;;6188176;23;20395;-86
2022/01/07 04:55:38;;;;;;;15.90;9.73;;;3.20;99.90;;;;;;6162115;23;20358;-87
2022/01/07 04:58:09;;;;;;;17.55;10.68;;;3.20;99.90;;;;;;6186710;23;20013;-87
2022/01/07 05:00:37;;;;;;;13.80;10.40;;;3.20;99.90;;;;;;6137766;23;20072;-88
2022/01/07 05:03:03;;;;;;;14.82;10.32;;;3.20;99.90;;;;;;6188049;23;20028;-88
2022/01/07 05:05:31;;;;;;;16.53;10.93;;;3.20;99.90;;;;;;6188084;23;20350;-88
2022/01/07 05:07:57;;;;;;;17.20;10.48;;;3.20;99.90;;;;;;6162271;23;20025;-86
2022/01/07 05:10:23;;;;;;;17.38;10.95;;;3.20;99.90;;;;;;6186229;23;20009;-87
2022/01/07 05:12:50;;;;;;;18.00;11.20;;;3.30;99.90;;;;;;6162346;23;20021;-87
2022/01/07 05:15:19;;;;;;;14.75;9.95;;;3.30;99.90;;;;;;6189230;23;20027;-87
2022/01/07 05:17:46;;;;;;;16.27;11.10;;;3.30;99.90;;;;;;6188592;23;20390;-88
2022/01/07 05:20:19;;;;;;;16.95;11.25;;;3.30;99.90;;;;;;6191427;23;20048;-89
2022/01/07 05:22:45;;;;;;;14.18;10.50;;;3.30;99.90;;;;;;6163804;23;20009;-88
2022/01/07 05:25:13;;;;;;;16.98;11.27;;;3.30;99.90;;;;;;6163511;23;20021;-88
2022/01/07 05:27:39;;;;;;;17.00;10.75;;;3.30;99.90;;;;;;6162170;23;20024;-91
2022/01/07 05:30:08;;;;;;;15.95;10.15;;;3.30;99.90;;;;;;6161625;23;20021;-92
2022/01/07 05:32:34;;;;;;;15.63;11.02;;;3.40;99.90;;;;;;6136475;23;20328;-89
2022/01/07 05:35:00;;;;;;;16.45;10.20;;;3.40;99.90;;;;;;6137162;23;20027;-91
2022/01/07 05:37:25;;;;;;;15.47;9.67;;;3.40;99.90;;;;;;6162382;23;20036;-89
2022/01/07 05:39:51;;;;;;;16.35;10.27;;;3.40;99.90;;;;;;6160966;23;20099;-94
2022/01/07 05:42:17;;;;;;;15.57;10.93;;;3.40;99.90;;;;;;6160846;23;20541;-88
2022/01/07 05:44:43;;;;;;;16.63;10.10;;;3.40;99.90;;;;;;6136118;23;20025;-89
2022/01/07 05:47:08;;;;;;;16.47;10.20;;;3.40;99.90;;;;;;6161073;23;20103;-90
2022/01/07 05:49:34;;;;;;;14.00;9.70;;;3.40;99.90;;;;;;6160922;23;20517;-93
2022/01/07 05:52:00;;;;;;;15.33;9.90;;;3.50;99.90;;;;;;6161341;23;20021;-87
2022/01/07 05:54:25;;;;;;;19.57;10.80;;;3.50;99.90;;;;;;6160624;23;20063;-87
2022/01/07 05:56:51;;;;;;;15.60;10.40;;;3.40;99.90;;;;;;6161404;23;20048;-88
2022/01/07 05:59:17;;;;;;;15.67;9.90;;;3.50;99.90;;;;;;6162008;23;20024;-87
2022/01/07 06:01:42;;;;;;;15.25;9.55;;;3.50;99.90;;;;;;6187208;23;20013;-87
2022/01/07 06:04:08;;;;;;;17.20;10.30;;;3.50;99.90;;;;;;6160171;23;20048;-88
2022/01/07 06:06:34;;;;;;;16.17;10.57;;;3.50;99.90;;;;;;6162973;23;20075;-87
2022/01/07 06:08:59;;;;;;;15.67;10.53;;;3.60;99.90;;;;;;6161854;23;20078;-88
2022/01/07 06:11:27;;;;;;;16.77;11.00;;;3.50;99.90;;;;;;6160862;23;20021;-88
2022/01/07 06:13:52;;;;;;;16.23;10.73;;;3.50;99.90;;;;;;6136874;23;20049;-88
2022/01/07 06:16:18;;;;;;;16.23;11.00;;;3.50;99.90;;;;;;6137830;23;20075;-88
2022/01/07 06:18:59;;;;;;;16.73;11.30;;;3.60;99.90;;;;;;6162042;23;20096;-88
2022/01/07 06:21:25;;;;;;;14.88;10.30;;;3.50;99.90;;;;;;6185282;23;20021;-87
2022/01/07 06:23:53;;;;;;;15.23;10.50;;;3.60;99.90;;;;;;6160547;23;20095;-87
2022/01/07 06:26:19;;;;;;;17.00;11.02;;;3.60;99.90;;;;;;6159939;23;20017;-86
2022/01/07 06:28:45;;;;;;;16.40;11.20;;;3.60;99.90;;;;;;6159786;23;20032;-87
2022/01/07 06:31:10;;;;;;;16.33;10.17;;;3.50;99.90;;;;;;6135041;23;20013;-87
2022/01/07 06:33:36;;;;;;;17.27;9.87;;;3.60;99.90;;;;;;6160100;23;20427;-88
2022/01/07 06:36:02;;;;;;;15.70;10.75;;;3.60;99.90;;;;;;6160933;23;20021;-87
2022/01/07 06:38:28;;;;;;;14.93;10.23;;;3.60;99.90;;;;;;6186151;23;20035;-87
2022/01/07 06:40:53;;;;;;;18.05;11.57;;;3.60;99.90;;;;;;6161487;23;20454;-91
2022/01/07 06:43:19;;;;;;;15.77;10.53;;;3.60;99.90;;;;;;6160677;23;20013;-88
2022/01/07 06:45:45;;;;;;;16.47;10.97;;;3.60;99.90;;;;;;6186519;23;20096;-88
2022/01/07 06:48:11;;;;;;;16.83;10.67;;;3.60;99.90;;;;;;6160131;23;20017;-88
2022/01/07 06:50:36;;;;;;;15.07;10.40;;;3.60;99.90;;;;;;6159258;23;20027;-86
2022/01/07 06:53:02;;;;;;;15.93;11.13;;;3.60;99.90;;;;;;6160212;23;20354;-88
2022/01/07 06:55:28;;;;;;;19.70;10.87;;;3.60;99.90;;;;;;6160417;23;20021;-86
2022/01/07 06:57:53;;;;;;;15.37;10.53;;;3.60;99.90;;;;;;6136013;23;20013;-87
2022/01/07 07:00:19;;;;;;;16.97;10.53;;;3.60;99.90;;;;;;6185112;23;20106;-88
2022/01/07 07:02:45;;;;;;;14.47;10.43;;;3.60;99.90;;;;;;6159707;23;20021;-89
2022/01/07 07:05:11;;;;;;;14.97;10.87;;;3.60;99.90;;;;;;6159886;23;20017;-87
2022/01/07 07:07:37;;;;;;;15.77;11.00;;;3.60;99.90;;;;;;6186306;23;20024;-88
2022/01/07 07:10:04;;;;;;;14.27;10.53;;;3.60;99.90;;;;;;6160183;23;20096;-88
2022/01/07 07:12:30;;;;;;;14.10;10.30;;;3.60;99.90;;;;;;6161848;23;20091;-87
2022/01/07 07:14:56;;;;;;;16.30;11.70;;;3.60;99.90;;;;;;6160453;23;20439;-90
2022/01/07 07:17:23;;;;;;;14.80;10.77;;;3.60;99.90;;;;;;6159664;23;20020;-87
2022/01/07 07:19:49;;;;;;;14.75;11.15;;;3.60;99.90;;;;;;6186035;23;20091;-88
2022/01/07 07:22:15;;;;;;;14.10;10.95;;;3.70;99.90;;;;;;6159665;23;20446;-88
2022/01/07 07:24:40;;;;;;;19.37;12.40;;;3.60;99.90;;;;;;6186101;23;20451;-89
2022/01/07 07:27:06;;;;;;;17.47;11.60;;;3.70;99.90;;;;;;6159316;23;20466;-87
2022/01/07 07:29:32;;;;;;;16.60;11.87;;;3.70;99.90;;;;;;6159682;23;20013;-88
2022/01/07 07:31:59;;;;;;;20.13;13.13;;;3.70;99.90;;;;;;6159739;23;20079;-87
2022/01/07 07:37:13;;;;;;;16.90;11.98;;;3.70;99.90;;;;;;6159378;23;20016;-87
2022/01/07 07:39:39;;;;;;;17.10;11.82;;;3.70;99.90;;;;;;6159341;23;20052;-87
2022/01/07 07:42:05;;;;;;;19.38;12.25;;;3.80;99.90;;;;;;6159725;23;20384;-90
2022/01/07 07:44:31;;;;;;;19.52;12.30;;;3.80;99.90;;;;;;6184876;23;20106;-88
2022/01/07 07:46:57;;;;;;;21.63;13.87;;;3.80;99.90;;;;;;6160032;23;20017;-89
2022/01/07 07:49:23;;;;;;;17.65;12.85;;;3.80;99.90;;;;;;6159672;23;20025;-87
2022/01/07 07:51:51;;;;;;;21.70;12.37;;;3.80;99.90;;;;;;6159725;23;20021;-92
2022/01/07 07:54:18;;;;;;;22.35;13.25;;;3.80;99.90;;;;;;6159758;23;20017;-88
2022/01/07 07:56:43;;;;;;;19.15;13.13;;;3.80;99.90;;;;;;6159896;23;20021;-88
2022/01/07 07:59:09;;;;;;;22.53;13.77;;;3.90;99.90;;;;;;6162195;23;20398;-88
2022/01/07 08:01:36;;;;;;;24.37;14.53;;;3.80;99.90;;;;;;6162354;23;20017;-88
2022/01/07 08:04:03;;;;;;;21.77;14.75;;;3.80;99.90;;;;;;6188187;23;20114;-87
2022/01/07 08:06:29;;;;;;;21.42;13.98;;;3.90;99.90;;;;;;6136621;23;20096;-89
2022/01/07 08:08:55;;;;;;;24.53;15.13;;;3.90;99.90;;;;;;6161402;23;20021;-88
2022/01/07 08:11:23;;;;;;;22.77;14.90;;;3.90;99.90;;;;;;6160993;23;20071;-88
2022/01/07 08:16:33;;;;;;;23.92;16.38;;;4.00;99.90;;;;;;6161382;23;20406;-87
2022/01/07 08:18:59;;;;;;;25.67;15.73;;;4.00;99.90;;;;;;6161553;23;20021;-88
2022/01/07 08:21:27;;;;;;;26.23;14.67;;;4.00;99.90;;;;;;6186615;23;20120;-88
2022/01/07 08:23:53;;;;;;;24.30;16.20;;;4.00;99.90;;;;;;6137358;23;20017;-88
2022/01/07 08:26:20;;;;;;;28.25;16.70;;;4.10;99.90;;;;;;6137342;23;20359;-90
2022/01/07 08:28:54;;;;;;;27.08;16.35;;;4.10;99.90;;;;;;6161671;23;20013;-90
2022/01/07 08:36:58;;;;;;;32.15;17.25;;;4.10;99.90;;;;;;6115675;23;20025;-88
2022/01/07 08:39:25;;;;;;;25.00;17.10;;;4.20;99.90;;;;;;6138661;23;20017;-87
2022/01/07 08:41:51;;;;;;;26.23;16.52;;;4.20;99.90;;;;;;6135893;23;20355;-91
2022/01/07 08:44:17;;;;;;;28.92;17.33;;;4.30;99.90;;;;;;6135993;23;20020;-88
2022/01/07 08:46:43;;;;;;;26.20;16.50;;;4.30;99.90;;;;;;6160843;23;20021;-90
2022/01/07 08:49:09;;;;;;;34.05;17.40;;;4.30;99.90;;;;;;6136045;23;20017;-88
2022/01/07 08:51:44;;;;;;;29.93;17.80;;;4.30;99.90;;;;;;6160832;23;20071;-86
2022/01/07 08:54:10;;;;;;;35.08;18.38;;;4.30;99.90;;;;;;6160403;23;20068;-86
2022/01/07 08:56:37;;;;;;;28.63;17.03;;;4.30;99.90;;;;;;6160629;23;20389;-87
2022/01/07 08:59:02;;;;;;;28.48;18.98;;;4.40;99.90;;;;;;6186934;23;20028;-93
2022/01/07 09:01:28;;;;;;;28.17;18.93;;;4.40;99.90;;;;;;6186905;23;20459;-87
2022/01/07 09:03:55;;;;;;;25.97;17.23;;;4.40;99.90;;;;;;6185457;23;20394;-88
2022/01/07 09:11:19;;;;;;;29.02;17.70;;;4.40;99.90;;;;;;6156285;23;20219;-89
2022/01/07 09:13:48;;;;;;;28.77;18.10;;;4.50;99.90;;;;;;6155468;23;20021;-91
2022/01/07 09:16:16;;;;;;;29.70;18.48;;;4.50;99.90;;;;;;6129776;23;20025;-90
2022/01/07 09:18:42;;;;;;;32.05;18.77;;;4.50;99.90;;;;;;6155174;23;20205;-91
2022/01/07 09:21:08;;;;;;;35.67;19.73;;;4.50;99.90;;;;;;6131492;23;20049;-92
2022/01/07 09:23:34;;;;;;;31.90;18.77;;;4.60;99.90;;;;;;6131109;23;20087;-92
2022/01/07 09:26:02;;;;;;;27.80;19.50;;;4.60;99.90;;;;;;6132079;23;20024;-91
2022/01/07 09:28:31;;;;;;;31.58;18.52;;;4.60;99.90;;;;;;6131312;23;20316;-92
2022/01/07 09:30:56;;;;;;;30.73;18.27;;;4.60;99.90;;;;;;6132026;23;20026;-93
2022/01/07 09:33:22;;;;;;;33.23;19.87;;;4.60;99.90;;;;;;6131693;23;20071;-91
2022/01/07 09:35:50;;;;;;;32.03;19.70;;;4.60;99.90;;;;;;6131451;23;20040;-91
2022/01/07 09:38:16;;;;;;;32.03;19.23;;;4.60;99.90;;;;;;6155904;23;20013;-89
2022/01/07 09:40:42;;;;;;;35.33;19.83;;;4.60;99.90;;;;;;6131173;23;20017;-91
2022/01/07 09:43:09;;;;;;;31.67;20.40;;;4.70;99.90;;;;;;6131318;23;20017;-91
2022/01/07 09:45:36;;;;;;;33.58;19.50;;;4.70;99.90;;;;;;6155995;23;20095;-91
2022/01/07 09:48:03;;;;;;;28.70;19.35;;;4.70;99.90;;;;;;6131264;23;20355;-91
2022/01/07 09:50:31;;;;;;;28.83;19.50;;;4.70;99.90;;;;;;6131097;23;20032;-91
2022/01/07 09:52:57;;;;;;;31.70;20.08;;;4.80;99.90;;;;;;6130902;23;20026;-92
2022/01/07 09:55:23;;;;;;;29.70;19.77;;;4.80;99.90;;;;;;6131400;23;20018;-91
2022/01/07 09:57:49;;;;;;;30.70;19.70;;;4.80;99.90;;;;;;6131314;23;20018;-92
2022/01/07 10:00:15;;;;;;;33.53;18.33;;;4.90;99.90;;;;;;6130780;23;20068;-91
2022/01/07 10:03:03;;;;;;;34.33;17.90;;;4.90;99.90;;;;;;6131091;23;20018;-92
2022/01/07 10:05:33;;;;;;;;;;;4.90;99.90;;;;;;6131264;23;20024;-92
2022/01/07 10:08:21;;;;;;;29.80;17.48;;;4.90;99.90;;;;;;6129985;23;19917;-91
2022/01/07 10:11:07;;;;;;;31.63;17.98;;;4.90;99.90;;;;;;6130984;23;20056;-91
2022/01/07 10:13:33;;;;;;;24.17;15.10;;;4.90;99.90;;;;;;6131236;23;20096;-96
2022/01/07 10:16:35;;;;;;;24.00;15.60;;;4.90;99.90;;;;;;6130955;23;20046;-92
2022/01/07 10:19:00;;;;;;;25.88;14.45;;;4.90;99.90;;;;;;6119611;23;20107;-92
2022/01/07 10:21:54;;;;;;;20.60;13.30;;;4.90;99.90;;;;;;6130951;23;20025;-92
2022/01/07 10:24:20;;;;;;;17.45;10.45;;;4.90;99.90;;;;;;6130723;23;20347;-90
2022/01/07 10:27:10;;;;;;;18.10;8.03;;;4.90;99.90;;;;;;6131106;23;20025;-93
2022/01/07 10:29:40;;;;;;;10.20;6.20;;;4.90;99.90;;;;;;6135371;23;20092;-90
2022/01/07 10:32:50;;;;;;;9.27;4.38;;;4.90;99.90;;;;;;6136075;23;20021;-93
2022/01/07 10:35:21;;;;;;;6.28;2.40;;;4.90;99.90;;;;;;6095354;23;20452;-92
2022/01/07 10:38:05;;;;;;;6.85;1.88;;;4.90;99.90;;;;;;6069998;23;20465;-91
2022/01/07 10:40:32;;;;;;;5.93;2.30;;;4.80;99.90;;;;;;6136255;23;20017;-92
2022/01/07 10:43:14;;;;;;;8.32;2.35;;;4.80;99.90;;;;;;6135645;23;20024;-91
2022/01/07 10:45:49;;;;;;;4.93;2.35;;;4.80;99.90;;;;;;6135712;23;20028;-91
2022/01/07 10:48:26;;;;;;;6.45;2.70;;;4.80;99.90;;;;;;6136041;23;20070;-93
2022/01/07 10:50:53;;;;;;;7.53;2.92;;;4.80;99.90;;;;;;6135881;23;20062;-92
2022/01/07 10:53:40;;;;;;;7.20;3.17;;;4.80;99.90;;;;;;6135631;23;20346;-93
2022/01/07 10:56:34;;;;;;;8.52;3.13;;;4.90;99.90;;;;;;6135886;23;20024;-94
2022/01/07 10:59:03;;;;;;;5.45;2.53;;;4.90;99.90;;;;;;6135857;23;20405;-93
2022/01/07 11:01:35;;;;;;;6.78;2.60;;;5.00;99.90;;;;;;6135379;23;20040;-94
2022/01/07 11:04:04;;;;;;;6.53;2.50;;;5.00;99.90;;;;;;6136010;23;20020;-93
2022/01/07 11:06:51;;;;;;;8.80;2.83;;;5.00;99.90;;;;;;6135801;23;20346;-91
2022/01/07 11:09:18;;;;;;;5.57;2.00;;;5.00;99.90;;;;;;6102276;23;20021;-89
2022/01/07 11:12:00;;;;;;;10.18;2.55;;;5.00;99.90;;;;;;6101039;23;20028;-91
2022/01/07 11:14:32;;;;;;;6.78;2.03;;;5.10;99.90;;;;;;6077045;23;20471;-91
2022/01/07 11:17:03;;;;;;;6.00;1.88;;;5.10;99.90;;;;;;6076698;23;20112;-92
2022/01/07 11:19:38;;;;;;;9.35;2.65;;;5.20;99.90;;;;;;6076916;23;20053;-90
2022/01/07 11:22:54;;;;;;;7.30;2.40;;;5.10;99.90;;;;;;6077458;23;20092;-90
2022/01/07 11:25:43;;;;;;;8.50;2.00;;;5.10;99.90;;;;;;6077731;23;20022;-91
2022/01/07 11:28:17;;;;;;;7.43;2.10;;;5.10;99.90;;;;;;6103118;23;20021;-92
2022/01/07 11:30:47;;;;;;;10.57;2.22;;;5.10;99.90;;;;;;6077451;23;20096;-89
2022/01/07 11:33:22;;;;;;;9.93;2.50;;;5.10;99.90;;;;;;6079401;23;20017;-91
2022/01/07 11:35:48;;;;;;;6.72;2.30;;;5.10;99.90;;;;;;6129335;23;20045;-87
2022/01/07 11:38:30;;;;;;;11.05;2.25;;;5.10;99.90;;;;;;6107262;23;20021;-96
2022/01/07 11:40:56;;;;;;;7.65;2.67;;;5.10;99.90;;;;;;6088545;23;20017;-87
2022/01/07 11:43:24;;;;;;;10.13;3.53;;;5.20;99.90;;;;;;6059407;23;20026;-86
2022/01/07 11:45:50;;;;;;;8.15;3.58;;;5.20;99.90;;;;;;6106889;23;20451;-89
2022/01/07 11:48:25;;;;;;;8.43;3.60;;;5.20;99.90;;;;;;6110619;23;20017;-95
2022/01/07 11:53:49;;;;;;;11.93;4.75;;;5.30;99.90;;;;;;6132089;23;20049;-88
2022/01/07 11:56:23;;;;;;;10.80;5.18;;;5.30;99.90;;;;;;6113933;23;20456;-86
2022/01/07 11:58:55;;;;;;;11.07;4.90;;;5.40;99.90;;;;;;6145899;23;20025;-91
2022/01/07 12:01:26;;;;;;;9.07;5.32;;;5.40;99.90;;;;;;6145787;23;20096;-86
2022/01/07 12:03:53;;;;;;;12.43;5.90;;;5.40;99.90;;;;;;6110969;23;20018;-95
2022/01/07 12:06:28;;;;;;;13.77;6.22;;;5.50;99.90;;;;;;6131142;23;20024;-90
2022/01/07 12:09:04;;;;;;;13.18;6.53;;;5.50;99.90;;;;;;6159971;23;20018;-92
2022/01/07 12:11:33;;;;;;;13.27;6.05;;;5.50;99.90;;;;;;6137740;23;20021;-96
2022/01/07 12:14:01;;;;;;;15.38;7.07;;;5.60;99.90;;;;;;6140869;23;20013;-88
2022/01/07 12:16:29;;;;;;;14.52;6.53;;;5.60;99.90;;;;;;6168032;23;20018;-94
2022/01/07 12:21:30;;;;;;;16.02;6.30;;;5.60;99.90;;;;;;6124394;23;20333;-90
2022/01/07 12:24:11;;;;;;;12.20;6.53;;;5.70;99.90;;;;;;6109936;23;20030;-91
2022/01/07 12:26:38;;;;;;;13.38;7.00;;;5.70;99.90;;;;;;6079191;23;20045;-85
2022/01/07 12:29:04;;;;;;;20.52;8.27;;;5.80;99.90;;;;;;6076137;23;20448;-84
2022/01/07 12:31:31;;;;;;;22.73;8.80;;;5.80;99.90;;;;;;6085309;23;20022;-91
2022/01/07 12:34:02;;;;;;;16.92;8.15;;;5.90;99.90;;;;;;6085486;23;20019;-84
2022/01/07 12:36:32;;;;;;;17.52;8.43;;;5.90;99.90;;;;;;6081713;23;20018;-91
2022/01/07 12:39:09;;;;;;;19.42;8.57;;;6.00;99.90;;;;;;6106391;23;20014;-86
2022/01/07 12:41:36;;;;;;;18.80;8.45;;;6.00;99.90;;;;;;6109974;23;20066;-84
2022/01/07 12:44:10;;;;;;;15.85;8.15;;;6.00;99.90;;;;;;6083328;23;20546;-87
2022/01/07 12:46:37;;;;;;;16.10;7.93;;;6.10;99.90;;;;;;6055019;23;20069;-89
2022/01/07 12:49:06;;;;;;;17.48;7.88;;;6.00;99.90;;;;;;6083374;23;20053;-93
2022/01/07 12:51:32;;;;;;;17.23;7.63;;;6.00;99.90;;;;;;6087409;23;20018;-92
2022/01/07 12:54:01;;;;;;;14.90;6.63;;;6.00;99.90;;;;;;6169912;23;20050;-86
2022/01/07 12:56:34;;;;;;;16.30;7.32;;;5.90;99.90;;;;;;6170087;23;20012;-89
2022/01/07 12:59:17;;;;;;;19.50;7.50;;;5.90;99.90;;;;;;6170858;23;20016;-86
2022/01/07 13:01:44;;;;;;;13.07;5.35;;;6.00;99.90;;;;;;6197625;23;20066;-88
2022/01/07 13:04:12;;;;;;;12.48;5.95;;;5.90;99.90;;;;;;6199408;23;20152;-89
2022/01/07 13:06:49;;;;;;;9.95;5.32;;;5.90;99.90;;;;;;6222371;23;20066;-96
2022/01/07 13:09:33;;;;;;;14.75;5.20;;;5.90;99.90;;;;;;6197085;23;20058;-89
2022/01/07 13:12:00;;;;;;;10.95;4.15;;;5.90;99.90;;;;;;6198769;23;20446;-92
2022/01/07 13:17:03;;;;;;;11.18;4.53;;;5.80;99.90;;;;;;6201390;23;20021;-91
2022/01/07 13:19:29;;;;;;;9.88;4.18;;;5.70;99.90;;;;;;6176882;23;20021;-96
2022/01/07 13:21:57;;;;;;;10.13;4.70;;;5.60;99.90;;;;;;6142449;23;20048;-94
2022/01/07 13:24:30;;;;;;;14.93;4.47;;;5.60;99.90;;;;;;6152127;23;20049;-94